createdAt,value
2018-04-27T00:01:53.989Z,7.70
2018-04-27T00:04:21.549Z,7.70
2018-04-27T00:06:49.348Z,7.60
2018-04-27T00:09:18.345Z,7.50
2018-04-27T00:11:45.901Z,7.50
2018-04-27T00:14:13.433Z,7.40
2018-04-27T00:16:40.970Z,7.40
2018-04-27T00:19:08.927Z,7.50
2018-04-27T00:21:36.662Z,7.50
2018-04-27T00:24:04.971Z,7.40
2018-04-27T00:26:33.314Z,7.30
2018-04-27T00:29:00.861Z,7.30
2018-04-27T00:31:28.712Z,7.40
2018-04-27T00:33:56.842Z,7.30
2018-04-27T00:36:24.706Z,7.30
2018-04-27T00:38:52.280Z,7.30
2018-04-27T00:41:19.924Z,7.30
2018-04-27T00:43:48.220Z,7.40
2018-04-27T00:46:16.029Z,7.30
2018-04-27T00:48:48.798Z,7.70
2018-04-27T00:51:16.325Z,7.60
2018-04-27T00:53:43.870Z,7.80
2018-04-27T00:56:12.158Z,7.90
2018-04-27T00:59:00.452Z,7.80
2018-04-27T01:01:28.606Z,7.80
2018-04-27T01:03:56.768Z,7.80
2018-04-27T01:06:26.055Z,7.80
2018-04-27T01:08:54.963Z,7.90
2018-04-27T01:11:22.987Z,7.90
2018-04-27T01:13:51.857Z,7.90
2018-04-27T01:16:19.399Z,7.90
2018-04-27T01:18:47.641Z,7.80
2018-04-27T01:21:16.104Z,7.80
2018-04-27T01:23:44.179Z,7.80
2018-04-27T01:26:14.081Z,7.80
2018-04-27T01:28:41.623Z,7.80
2018-04-27T01:40:52.230Z,7.90
2018-04-27T01:43:20.638Z,7.90
2018-04-27T01:45:48.548Z,7.90
2018-04-27T01:48:16.073Z,7.90
2018-04-27T01:50:44.094Z,7.80
2018-04-27T01:53:13.190Z,7.80
2018-04-27T01:55:41.549Z,7.70
2018-04-27T01:58:09.164Z,7.70
2018-04-27T02:00:36.686Z,7.70
2018-04-27T02:03:04.222Z,7.70
2018-04-27T02:05:32.147Z,7.70
2018-04-27T02:08:00.278Z,7.80
2018-04-27T02:10:27.993Z,7.80
2018-04-27T02:12:56.478Z,7.80
2018-04-27T02:15:27.356Z,7.80
2018-04-27T02:17:55.702Z,7.80
2018-04-27T02:20:25.144Z,7.80
2018-04-27T02:22:53.854Z,7.80
2018-04-27T02:25:21.715Z,7.80
2018-04-27T02:27:49.224Z,7.80
2018-04-27T02:30:16.769Z,7.90
2018-04-27T02:32:44.632Z,7.90
2018-04-27T02:35:17.661Z,7.90
2018-04-27T02:37:45.209Z,7.80
2018-04-27T02:40:14.694Z,7.90
2018-04-27T02:42:43.758Z,7.90
2018-04-27T02:45:25.521Z,7.90
2018-04-27T02:47:53.294Z,7.90
2018-04-27T02:50:20.840Z,8.00
2018-04-27T02:52:48.853Z,7.90
2018-04-27T02:55:17.118Z,8.00
2018-04-27T02:57:44.651Z,7.90
2018-04-27T03:03:01.995Z,7.90
2018-04-27T03:05:29.735Z,7.90
2018-04-27T03:07:58.417Z,7.90
2018-04-27T03:10:26.456Z,7.90
2018-04-27T03:12:55.153Z,7.90
2018-04-27T03:15:23.516Z,7.90
2018-04-27T03:17:51.397Z,7.90
2018-04-27T03:20:19.709Z,7.90
2018-04-27T03:22:47.265Z,7.90
2018-04-27T03:25:15.875Z,7.90
2018-04-27T03:27:44.626Z,7.90
2018-04-27T03:30:12.204Z,7.90
2018-04-27T03:32:40.447Z,7.90
2018-04-27T03:35:08.762Z,7.90
2018-04-27T03:37:36.298Z,7.90
2018-04-27T03:40:04.596Z,7.90
2018-04-27T03:42:33.627Z,7.90
2018-04-27T03:45:01.152Z,7.90
2018-04-27T03:47:28.741Z,7.90
2018-04-27T03:49:57.037Z,7.90
2018-04-27T03:52:26.995Z,7.90
2018-04-27T03:54:54.539Z,7.90
2018-04-27T03:57:22.958Z,7.90
2018-04-27T04:00:02.385Z,8.00
2018-04-27T04:02:42.608Z,8.00
2018-04-27T04:05:35.299Z,8.00
2018-04-27T04:08:04.101Z,8.10
2018-04-27T04:10:33.429Z,8.10
2018-04-27T04:13:01.336Z,8.20
2018-04-27T04:15:30.009Z,8.40
2018-04-27T04:17:58.411Z,8.30
2018-04-27T04:20:26.195Z,8.40
2018-04-27T04:22:53.732Z,8.40
2018-04-27T04:25:23.706Z,8.30
2018-04-27T04:27:52.028Z,8.20
2018-04-27T04:30:19.566Z,8.20
2018-04-27T04:32:47.111Z,8.30
2018-04-27T04:35:14.659Z,8.30
2018-04-27T04:37:43.795Z,8.30
2018-04-27T04:40:11.363Z,8.30
2018-04-27T04:42:38.900Z,8.30
2018-04-27T04:45:06.825Z,8.30
2018-04-27T04:47:34.664Z,8.40
2018-04-27T04:50:02.233Z,8.30
2018-04-27T04:52:38.716Z,8.30
2018-04-27T04:55:06.791Z,8.30
2018-04-27T04:57:34.568Z,8.30
2018-04-27T05:00:02.232Z,8.30
2018-04-27T05:02:31.768Z,8.30
2018-04-27T05:05:00.285Z,8.20
2018-04-27T05:07:28.413Z,8.20
2018-04-27T05:09:58.047Z,8.20
2018-04-27T05:12:26.116Z,8.20
2018-04-27T05:14:57.389Z,8.20
2018-04-27T05:18:01.166Z,8.20
2018-04-27T05:20:29.636Z,8.10
2018-04-27T05:22:57.189Z,8.10
2018-04-27T05:25:25.360Z,8.00
2018-04-27T05:27:52.893Z,8.00
2018-04-27T05:30:20.771Z,7.90
2018-04-27T05:32:49.165Z,7.80
2018-04-27T05:35:16.700Z,7.80
2018-04-27T05:37:44.901Z,7.80
2018-04-27T05:40:12.572Z,7.70
2018-04-27T05:42:44.601Z,7.60
2018-04-27T05:45:13.856Z,7.60
2018-04-27T05:47:45.251Z,7.60
2018-04-27T05:50:17.728Z,7.50
2018-04-27T05:52:45.256Z,7.50
2018-04-27T05:55:12.910Z,7.50
2018-04-27T05:57:41.685Z,7.50
2018-04-27T06:00:10.588Z,7.50
2018-04-27T06:02:43.785Z,7.50
2018-04-27T06:05:20.597Z,7.40
2018-04-27T06:07:54.216Z,7.40
2018-04-27T06:10:26.853Z,7.40
2018-04-27T06:13:03.104Z,7.30
2018-04-27T06:15:40.305Z,7.30
2018-04-27T06:18:07.845Z,7.30
2018-04-27T06:20:45.588Z,7.30
2018-04-27T06:23:20.993Z,7.30
2018-04-27T06:25:59.060Z,7.30
2018-04-27T06:28:36.647Z,7.30
2018-04-27T06:31:04.184Z,7.30
2018-04-27T06:33:44.474Z,7.40
2018-04-27T06:36:17.770Z,7.40
2018-04-27T06:38:51.894Z,7.40
2018-04-27T06:41:25.361Z,7.40
2018-04-27T06:44:03.466Z,7.50
2018-04-27T06:46:36.201Z,7.60
2018-04-27T06:49:11.802Z,7.60
2018-04-27T06:51:46.976Z,7.60
2018-04-27T06:54:19.122Z,7.70
2018-04-27T06:56:53.651Z,7.80
2018-04-27T06:59:28.729Z,7.90
2018-04-27T07:02:02.807Z,7.80
2018-04-27T07:04:42.104Z,7.90
2018-04-27T07:07:15.339Z,7.90
2018-04-27T07:09:47.960Z,8.00
2018-04-27T07:12:23.363Z,8.10
2018-04-27T07:14:52.441Z,8.20
2018-04-27T07:17:20.595Z,8.20
2018-04-27T07:19:48.747Z,8.30
2018-04-27T07:22:17.062Z,8.40
2018-04-27T07:24:45.368Z,8.40
2018-04-27T07:27:14.758Z,8.40
2018-04-27T07:29:50.076Z,8.30
2018-04-27T07:32:24.537Z,8.30
2018-04-27T07:35:34.066Z,8.50
2018-04-27T07:38:08.651Z,8.60
2018-04-27T07:40:41.476Z,8.50
2018-04-27T07:43:09.033Z,8.60
2018-04-27T07:45:36.567Z,8.70
2018-04-27T07:48:05.313Z,8.60
2018-04-27T07:50:32.863Z,8.70
2018-04-27T07:53:01.263Z,8.70
2018-04-27T07:55:31.414Z,8.80
2018-04-27T07:58:00.830Z,8.80
2018-04-27T08:00:29.161Z,9.00
2018-04-27T08:02:57.461Z,9.00
2018-04-27T08:05:42.759Z,9.00
2018-04-27T08:08:10.307Z,9.20
2018-04-27T08:10:38.560Z,9.20
2018-04-27T08:13:06.939Z,9.50
2018-04-27T08:15:45.241Z,9.50
2018-04-27T08:18:13.601Z,9.50
2018-04-27T08:21:02.959Z,9.50
2018-04-27T08:23:30.713Z,9.60
2018-04-27T08:25:59.725Z,9.50
2018-04-27T08:28:34.445Z,9.60
2018-04-27T08:31:03.682Z,9.50
2018-04-27T08:33:31.835Z,9.50
2018-04-27T08:36:37.753Z,9.70
2018-04-27T08:39:05.317Z,9.60
2018-04-27T08:41:32.848Z,9.40
2018-04-27T08:44:03.573Z,9.40
2018-04-27T08:46:34.453Z,9.40
2018-04-27T08:49:02.615Z,9.40
2018-04-27T08:51:30.601Z,9.50
2018-04-27T08:53:58.152Z,9.50
2018-04-27T08:56:27.243Z,9.50
2018-04-27T08:58:58.232Z,9.50
2018-04-27T09:01:25.771Z,9.70
2018-04-27T09:03:53.308Z,9.80
2018-04-27T09:06:20.886Z,9.90
2018-04-27T09:08:53.147Z,9.90
2018-04-27T09:11:25.362Z,9.90
2018-04-27T09:13:53.571Z,9.80
2018-04-27T09:16:21.614Z,9.80
2018-04-27T09:18:51.267Z,9.50
2018-04-27T09:21:27.839Z,9.50
2018-04-27T09:23:59.378Z,9.50
2018-04-27T09:26:27.434Z,9.40
2018-04-27T09:28:56.650Z,9.20
2018-04-27T09:31:32.184Z,9.20
2018-04-27T09:34:04.827Z,9.20
2018-04-27T09:36:34.700Z,9.40
2018-04-27T09:39:02.321Z,9.40
2018-04-27T09:41:29.864Z,9.40
2018-04-27T09:43:58.090Z,9.50
2018-04-27T09:46:25.850Z,9.60
2018-04-27T09:48:53.685Z,9.70
2018-04-27T09:51:21.225Z,9.70
2018-04-27T09:53:48.751Z,9.90
2018-04-27T09:56:18.710Z,9.90
2018-04-27T09:58:51.077Z,9.90
2018-04-27T10:01:24.383Z,9.80
2018-04-27T10:03:58.361Z,10.00
2018-04-27T10:06:26.798Z,10.20
2018-04-27T10:08:54.304Z,10.40
2018-04-27T10:11:21.858Z,10.50
2018-04-27T10:13:51.432Z,10.80
2018-04-27T10:16:25.286Z,11.00
2018-04-27T10:19:00.881Z,11.10
2018-04-27T10:21:36.857Z,11.50
2018-04-27T10:24:11.104Z,11.90
2018-04-27T10:26:40.529Z,11.90
2018-04-27T10:29:08.858Z,12.20
2018-04-27T10:31:36.877Z,12.30
2018-04-27T10:34:04.492Z,12.10
2018-04-27T10:36:35.795Z,11.90
2018-04-27T10:39:07.477Z,11.50
2018-04-27T10:41:42.976Z,11.20
2018-04-27T10:44:21.514Z,11.60
2018-04-27T10:46:52.143Z,11.60
2018-04-27T10:49:29.814Z,11.90
2018-04-27T10:51:58.254Z,11.90
2018-04-27T10:54:26.680Z,11.90
